Bezoek onze andere website:

Template documentation
and downloads

And another site


METAR rapporten vliegvelden

   
EBBR - Brussels International Airport, Belgium
Afstand tot: W 14 km
Gewijzigd: 20-04-2018 17:50
Helder  
Helder  
   Wind: NNW 18.5 km/h
Wind: NNW 18.5 km/h
Temperatuur: 25°C
Dauwpunt: 11°C
Vochtigheid: 42%
Barometer: 1022 hPa
Zicht: meer dan 10 km
Bewolking: Helder
EBBR 201550Z 34010KT 310V010 CAVOK 25/11 Q1022 NOSIG
EBBE - Beauvechain (Bevekom), Belgium
Afstand tot: ZZO 17 km
Gewijzigd: 20-04-2018 17:25
Licht bewolkt  
Licht bewolkt  
   Wind: Westen 13 km/h
Wind: Westen 13 km/h
Temperatuur: 26°C
Dauwpunt: 10°C
Vochtigheid: 37%
Barometer: 1022 hPa
Bewolking: Licht bewolkt
Zicht: meer dan 10 km
Bewolking: Licht bewolkt 5100 ft
EBBE 201525Z 26007KT 9999 FEW051 26/10 Q1022 BLU BLU
EBDT - Schaffen, Belgium
Afstand tot: ONO 29 km
Gewijzigd: 20-04-2018 17:25
Helder  
Helder  
   Wind: WNW 11.1 km/h
Wind: WNW 11.1 km/h
Temperatuur: 27°C
Dauwpunt: 8°C
Vochtigheid: 30%
Barometer: 1021 hPa
Bewolking: Helder
Zicht: meer dan 10 km
Bewolking: Helder
EBDT 201525Z AUTO 30006KT 9999 NCD 27/08 Q1021 BLU
EBAW - Antwerp/Deurne, Belgium
Afstand tot: NNW 38 km
Gewijzigd: 20-04-2018 17:50
Helder  
Helder  
   Wind: WNW 20.4 km/h
Wind: WNW 20.4 km/h
Temperatuur: 25°C
Dauwpunt: 7°C
Vochtigheid: 32%
Barometer: 1022 hPa
Zicht: meer dan 10 km
Bewolking: Helder
EBAW 201550Z 30011KT CAVOK 25/07 Q1022 NOSIG
EBCI - Charleroi/Gosselies, Belgium
Afstand tot: ZZW 51 km
Gewijzigd: 20-04-2018 17:50
Helder  
Helder  
   Wind: NNW 9.3 km/h
Wind: NNW 9.3 km/h
Temperatuur: 25°C
Dauwpunt: 12°C
Vochtigheid: 44%
Barometer: 1022 hPa
Zicht: meer dan 10 km
Bewolking: Helder
EBCI 201550Z 33005KT 280V030 CAVOK 25/12 Q1022 NOSIG
EBLG - Bierset/Liege, Belgium
Afstand tot: OZO 60 km
Gewijzigd: 20-04-2018 17:50
Helder  
Helder  
   Wind: WNW 9.3 km/h
Wind: WNW 9.3 km/h
Temperatuur: 26°C
Dauwpunt: 10°C
Vochtigheid: 37%
Barometer: 1022 hPa
Zicht: meer dan 10 km
Bewolking: Helder
EBLG 201550Z 30005KT 270V360 CAVOK 26/10 Q1022 NOSIG

Script ontwikkeld door  Saratoga-weather.org Aangepast voor de template door  Weerstation Leuven

U vindt ons ook hier:

Het Weer Aktueel

WeatherCloud

Weather Underground